createdAt,value
2022-10-23T00:01:26.659Z,12.04
2022-10-23T00:03:58.400Z,12.00
2022-10-23T00:06:28.170Z,12.05
2022-10-23T00:08:57.071Z,12.07
2022-10-23T00:11:26.927Z,12.09
2022-10-23T00:13:57.040Z,12.09
2022-10-23T00:16:25.699Z,12.11
2022-10-23T00:18:55.449Z,12.08
2022-10-23T00:21:24.237Z,12.07
2022-10-23T00:23:52.894Z,12.07
2022-10-23T00:26:21.132Z,12.11
2022-10-23T00:28:51.885Z,12.12
2022-10-23T00:31:21.098Z,12.04
2022-10-23T00:33:49.633Z,12.14
2022-10-23T00:36:21.486Z,12.13
2022-10-23T00:38:50.973Z,12.09
2022-10-23T00:41:21.920Z,12.08
2022-10-23T00:43:59.512Z,12.08
2022-10-23T00:46:28.386Z,12.08
2022-10-23T00:48:58.600Z,12.07
2022-10-23T00:51:32.742Z,12.06
2022-10-23T00:54:22.938Z,12.09
2022-10-23T00:56:51.075Z,12.09
2022-10-23T00:59:19.536Z,12.13
2022-10-23T01:01:48.520Z,12.08
2022-10-23T01:04:16.890Z,12.08
2022-10-23T01:06:54.173Z,12.05
2022-10-23T01:09:31.072Z,12.01
2022-10-23T01:12:06.583Z,11.99
2022-10-23T01:14:41.965Z,11.96
2022-10-23T01:17:17.813Z,11.97
2022-10-23T01:19:57.854Z,11.95
2022-10-23T01:22:47.217Z,11.95
2022-10-23T01:25:30.920Z,12.00
2022-10-23T01:28:05.101Z,12.09
2022-10-23T01:30:36.879Z,12.09
2022-10-23T01:33:09.644Z,12.09
2022-10-23T01:35:41.870Z,12.11
2022-10-23T01:38:14.519Z,12.10
2022-10-23T01:40:50.099Z,12.12
2022-10-23T01:43:24.183Z,12.12
2022-10-23T01:45:54.892Z,12.16
2022-10-23T01:48:27.433Z,12.11
2022-10-23T01:50:58.939Z,12.12
2022-10-23T01:53:30.833Z,12.15
2022-10-23T01:56:01.737Z,12.18
2022-10-23T01:58:34.001Z,12.15
2022-10-23T02:01:06.546Z,12.16
2022-10-23T02:03:38.756Z,12.13
2022-10-23T02:06:07.629Z,12.09
2022-10-23T02:08:36.150Z,12.11
2022-10-23T02:11:09.884Z,12.09
2022-10-23T02:13:45.508Z,12.09
2022-10-23T02:16:20.977Z,12.10
2022-10-23T02:18:56.455Z,12.13
2022-10-23T02:21:32.807Z,12.15
2022-10-23T02:24:04.364Z,12.18
2022-10-23T02:26:37.715Z,12.27
2022-10-23T02:29:12.351Z,12.28
2022-10-23T02:31:40.900Z,12.31
2022-10-23T02:34:09.667Z,12.30
2022-10-23T02:36:38.120Z,12.34
2022-10-23T02:39:07.201Z,12.32
2022-10-23T02:41:45.483Z,12.29
2022-10-23T02:44:26.269Z,12.30
2022-10-23T02:47:04.023Z,12.28
2022-10-23T02:49:39.491Z,12.28
2022-10-23T02:52:13.944Z,12.29
2022-10-23T02:55:05.434Z,12.28
2022-10-23T02:57:41.327Z,12.30
2022-10-23T03:00:15.843Z,12.29
2022-10-23T03:02:49.279Z,12.27
2022-10-23T03:05:21.345Z,12.29
2022-10-23T03:07:49.935Z,12.31
2022-10-23T03:10:18.275Z,12.28
2022-10-23T03:12:47.593Z,12.26
2022-10-23T03:15:18.004Z,12.25
2022-10-23T03:17:46.243Z,12.25
2022-10-23T03:20:14.594Z,12.21
2022-10-23T03:22:42.913Z,12.26
2022-10-23T03:25:11.721Z,12.28
2022-10-23T03:27:40.131Z,12.28
2022-10-23T03:30:09.889Z,12.29
2022-10-23T03:32:39.880Z,12.31
2022-10-23T03:35:09.270Z,12.33
2022-10-23T03:37:37.464Z,12.36
2022-10-23T03:40:06.762Z,12.36
2022-10-23T03:42:35.151Z,12.36
2022-10-23T03:45:03.332Z,12.37
2022-10-23T03:47:32.498Z,12.39
2022-10-23T03:50:03.040Z,12.44
2022-10-23T03:52:31.060Z,12.49
2022-10-23T03:54:59.186Z,12.53
2022-10-23T03:57:27.565Z,12.58
2022-10-23T03:59:55.637Z,12.61
2022-10-23T04:02:24.090Z,12.62
2022-10-23T04:04:52.448Z,12.61
2022-10-23T04:07:21.877Z,12.64
2022-10-23T04:09:50.145Z,12.69
2022-10-23T04:12:18.530Z,12.69
2022-10-23T04:14:46.599Z,12.71
2022-10-23T04:17:14.909Z,12.73
2022-10-23T04:19:43.256Z,12.76
2022-10-23T04:22:11.448Z,12.76
2022-10-23T04:24:45.530Z,12.77
2022-10-23T04:27:14.219Z,12.82
2022-10-23T04:29:42.400Z,12.83
2022-10-23T04:32:10.981Z,12.84
2022-10-23T04:34:39.601Z,12.81
2022-10-23T04:37:07.730Z,12.81
2022-10-23T04:39:35.957Z,12.86
2022-10-23T04:42:05.800Z,12.84
2022-10-23T04:44:33.895Z,12.83
2022-10-23T04:47:02.107Z,12.83
2022-10-23T04:49:30.487Z,12.82
2022-10-23T04:51:58.524Z,12.82
2022-10-23T04:54:26.791Z,12.80
2022-10-23T04:56:54.927Z,12.82
2022-10-23T04:59:24.409Z,12.83
2022-10-23T05:01:52.768Z,12.84
2022-10-23T05:04:20.968Z,12.86
2022-10-23T05:06:49.029Z,12.88
2022-10-23T05:09:17.370Z,12.89
2022-10-23T05:11:45.694Z,12.92
2022-10-23T05:14:14.063Z,12.92
2022-10-23T05:16:48.033Z,12.92
2022-10-23T05:19:24.223Z,12.93
2022-10-23T05:21:56.170Z,13.02
2022-10-23T05:24:24.551Z,13.06
2022-10-23T05:26:53.956Z,13.14
2022-10-23T05:29:22.371Z,13.19
2022-10-23T05:31:55.768Z,13.20
2022-10-23T05:34:28.031Z,13.30
2022-10-23T05:36:56.935Z,13.33
2022-10-23T05:39:25.468Z,13.39
2022-10-23T05:41:55.273Z,13.42
2022-10-23T05:44:23.572Z,13.43
2022-10-23T05:46:53.585Z,13.46
2022-10-23T05:49:21.894Z,13.48
2022-10-23T05:51:50.064Z,13.51
2022-10-23T05:54:18.349Z,13.49
2022-10-23T05:56:46.520Z,13.50
2022-10-23T05:59:17.837Z,13.50
2022-10-23T06:01:49.065Z,13.48
2022-10-23T06:04:18.586Z,13.48
2022-10-23T06:06:46.976Z,13.52
2022-10-23T06:09:16.290Z,13.48
2022-10-23T06:11:44.511Z,13.46
2022-10-23T06:14:12.864Z,13.47
2022-10-23T06:16:44.322Z,13.46
2022-10-23T06:19:12.781Z,13.46
2022-10-23T06:21:42.849Z,13.44
2022-10-23T06:24:11.527Z,13.46
2022-10-23T06:26:39.959Z,13.44
2022-10-23T06:29:08.655Z,13.41
2022-10-23T06:31:36.881Z,13.46
2022-10-23T06:34:06.112Z,13.43
2022-10-23T06:36:34.433Z,13.43
2022-10-23T06:39:04.261Z,13.44
2022-10-23T06:41:32.465Z,13.41
2022-10-23T06:44:01.851Z,13.51
2022-10-23T06:46:33.227Z,13.51
2022-10-23T06:49:01.455Z,13.53
2022-10-23T06:51:30.084Z,13.51
2022-10-23T06:53:58.806Z,13.52
2022-10-23T06:56:29.354Z,13.55
2022-10-23T06:58:57.878Z,13.52
2022-10-23T07:01:26.331Z,13.53
2022-10-23T07:03:54.898Z,13.55
2022-10-23T07:06:23.056Z,13.57
2022-10-23T07:08:51.309Z,13.55
2022-10-23T07:11:19.925Z,13.56
2022-10-23T07:13:49.511Z,13.55
2022-10-23T07:16:20.290Z,13.54
2022-10-23T07:18:49.563Z,13.56
2022-10-23T07:21:19.924Z,13.57
2022-10-23T07:23:48.918Z,13.58
2022-10-23T07:26:19.723Z,13.57
2022-10-23T07:28:51.747Z,13.56
2022-10-23T07:31:24.285Z,13.56
2022-10-23T07:33:55.548Z,13.64
2022-10-23T07:36:23.929Z,13.61
2022-10-23T07:38:53.245Z,13.61
2022-10-23T07:41:21.743Z,13.62
2022-10-23T07:43:51.770Z,13.61
2022-10-23T07:46:22.434Z,13.63
2022-10-23T07:48:50.585Z,13.60
2022-10-23T07:51:21.224Z,13.66
2022-10-23T07:53:49.619Z,13.70
2022-10-23T07:56:22.060Z,13.72
2022-10-23T07:58:53.911Z,13.75
2022-10-23T08:01:28.965Z,13.75
2022-10-23T08:03:57.731Z,13.77
2022-10-23T08:06:28.103Z,13.77
2022-10-23T08:08:58.373Z,13.76
2022-10-23T08:11:29.108Z,13.74
2022-10-23T08:13:59.944Z,13.68
2022-10-23T08:16:28.881Z,13.76
2022-10-23T08:18:57.282Z,13.73
2022-10-23T08:21:25.782Z,13.71
2022-10-23T08:23:55.322Z,13.68
2022-10-23T08:26:24.764Z,13.73
2022-10-23T08:28:53.495Z,13.77
2022-10-23T08:31:23.984Z,13.80
2022-10-23T08:33:52.195Z,13.90
2022-10-23T08:36:23.523Z,13.88
2022-10-23T08:38:53.763Z,13.91
2022-10-23T08:41:28.795Z,13.91
2022-10-23T08:44:03.081Z,13.89
2022-10-23T08:46:38.872Z,13.92
2022-10-23T08:49:19.488Z,13.89
2022-10-23T08:51:51.405Z,13.93
2022-10-23T08:54:23.017Z,13.92
2022-10-23T08:56:55.159Z,13.91
2022-10-23T08:59:29.358Z,13.94
2022-10-23T09:02:03.828Z,13.98
2022-10-23T09:04:33.630Z,14.05
2022-10-23T09:09:58.369Z,13.91
2022-10-23T09:12:28.937Z,13.98
2022-10-23T09:15:19.989Z,14.01
2022-10-23T09:17:55.490Z,14.03
2022-10-23T09:20:26.235Z,14.08
2022-10-23T09:22:57.654Z,14.08
2022-10-23T09:25:29.338Z,14.09
2022-10-23T09:28:01.611Z,14.10
2022-10-23T09:30:36.382Z,14.03
2022-10-23T09:33:18.188Z,14.04
2022-10-23T09:35:59.404Z,14.02
2022-10-23T09:38:32.378Z,14.04
2022-10-23T09:41:06.306Z,14.09
2022-10-23T09:43:35.153Z,14.08
2022-10-23T09:46:06.291Z,14.07
2022-10-23T09:48:36.645Z,14.11
2022-10-23T09:51:16.647Z,14.06
2022-10-23T09:53:53.798Z,14.07
2022-10-23T09:56:30.933Z,14.11
2022-10-23T09:59:05.948Z,14.06
2022-10-23T10:01:37.181Z,14.06
2022-10-23T10:04:06.989Z,14.06
2022-10-23T10:06:35.724Z,14.12
2022-10-23T10:09:09.645Z,14.10
2022-10-23T10:11:46.094Z,14.10
2022-10-23T10:14:31.672Z,14.11
2022-10-23T10:17:18.208Z,14.06
2022-10-23T10:20:07.844Z,14.07
2022-10-23T10:22:48.560Z,14.09
2022-10-23T10:25:23.086Z,14.07
2022-10-23T10:28:03.564Z,14.06
2022-10-23T10:30:41.616Z,14.00
2022-10-23T10:33:18.551Z,14.02
2022-10-23T10:35:55.412Z,14.06
2022-10-23T10:38:46.924Z,14.12
2022-10-23T10:41:31.367Z,14.15
2022-10-23T10:44:21.163Z,14.15
2022-10-23T10:46:57.777Z,14.16
2022-10-23T10:49:33.838Z,14.12
2022-10-23T10:52:15.364Z,14.07
2022-10-23T10:54:56.508Z,14.03
2022-10-23T10:57:33.211Z,14.05
2022-10-23T11:00:05.505Z,14.06
2022-10-23T11:02:41.759Z,14.09
2022-10-23T11:05:22.023Z,14.13
2022-10-23T11:07:56.973Z,14.05
2022-10-23T11:10:25.224Z,14.14
2022-10-23T11:12:53.840Z,14.18
2022-10-23T11:15:27.479Z,14.20
2022-10-23T11:17:59.608Z,14.26
2022-10-23T11:20:54.144Z,14.29
2022-10-23T11:23:50.295Z,14.20
2022-10-23T11:26:31.983Z,14.21
2022-10-23T11:29:21.791Z,14.23
2022-10-23T11:32:02.821Z,14.35
2022-10-23T11:35:15.562Z,14.29
2022-10-23T11:37:44.060Z,14.38
2022-10-23T11:40:25.221Z,14.26
2022-10-23T11:42:53.956Z,14.32
2022-10-23T11:45:31.834Z,14.34
2022-10-23T11:48:03.284Z,14.38
2022-10-23T11:50:34.306Z,14.40
2022-10-23T11:53:14.672Z,14.40
2022-10-23T11:55:58.735Z,14.32
2022-10-23T11:58:33.727Z,14.28
2022-10-23T12:01:08.675Z,14.29
2022-10-23T12:03:52.246Z,14.28
2022-10-23T12:06:27.415Z,14.20
2022-10-23T12:08:59.118Z,14.19
2022-10-23T12:11:41.800Z,14.20
2022-10-23T12:14:32.298Z,14.17
2022-10-23T12:17:03.747Z,14.24
2022-10-23T12:19:50.287Z,14.20
2022-10-23T12:22:20.396Z,14.24
2022-10-23T12:25:02.479Z,14.17
2022-10-23T12:27:42.084Z,14.28
2022-10-23T12:30:22.776Z,14.21
2022-10-23T12:33:15.733Z,14.21
2022-10-23T12:36:08.765Z,14.20
2022-10-23T12:38:45.046Z,14.18
2022-10-23T12:41:16.863Z,14.27
2022-10-23T12:43:54.111Z,14.23
2022-10-23T12:46:33.436Z,14.18
2022-10-23T12:49:04.304Z,14.08
2022-10-23T12:51:37.782Z,14.04
2022-10-23T12:54:17.173Z,14.02
2022-10-23T12:56:45.776Z,14.10
2022-10-23T12:59:20.134Z,14.08
2022-10-23T13:01:52.659Z,14.08
2022-10-23T13:04:29.534Z,14.02
2022-10-23T13:07:01.194Z,14.09
2022-10-23T13:09:33.275Z,14.03
2022-10-23T13:12:05.901Z,14.00
2022-10-23T13:14:42.042Z,14.00
2022-10-23T13:17:13.485Z,14.06
2022-10-23T13:19:41.911Z,14.11
2022-10-23T13:22:21.416Z,14.07
2022-10-23T13:24:52.974Z,14.09
2022-10-23T13:27:33.060Z,14.03
2022-10-23T13:30:04.940Z,14.00
2022-10-23T13:32:35.715Z,13.95
2022-10-23T13:35:21.911Z,13.97
2022-10-23T13:37:51.335Z,14.02
2022-10-23T13:40:25.781Z,13.96
2022-10-23T13:42:57.690Z,13.97
2022-10-23T13:45:30.612Z,13.84
2022-10-23T13:48:00.042Z,13.88
2022-10-23T13:50:30.465Z,13.83
2022-10-23T13:52:58.542Z,13.82
2022-10-23T13:55:28.559Z,13.86
2022-10-23T13:57:56.811Z,13.87
2022-10-23T14:00:30.010Z,13.82
2022-10-23T14:02:58.903Z,13.85
2022-10-23T14:05:27.025Z,13.89
2022-10-23T14:07:55.549Z,13.78
2022-10-23T14:10:27.591Z,13.75
2022-10-23T14:12:56.106Z,13.67
2022-10-23T14:15:25.005Z,13.61
2022-10-23T14:17:58.976Z,13.63
2022-10-23T14:20:28.822Z,13.66
2022-10-23T14:22:59.090Z,13.65
2022-10-23T14:25:27.358Z,13.66
2022-10-23T14:27:56.561Z,13.67
2022-10-23T14:30:25.129Z,13.63
2022-10-23T14:32:55.227Z,13.63
2022-10-23T14:35:27.892Z,13.66
2022-10-23T14:38:00.526Z,13.64
2022-10-23T14:40:31.738Z,13.60
2022-10-23T14:43:00.022Z,13.63
2022-10-23T14:45:29.917Z,13.53
2022-10-23T14:48:02.466Z,13.47
2022-10-23T14:50:32.620Z,13.48
2022-10-23T14:55:34.812Z,13.49
2022-10-23T14:58:03.244Z,13.53
2022-10-23T15:00:31.663Z,13.54
2022-10-23T15:03:01.684Z,13.52
2022-10-23T15:05:30.033Z,13.44
2022-10-23T15:07:59.123Z,13.48
2022-10-23T15:10:27.609Z,13.51
2022-10-23T15:12:56.093Z,13.51
2022-10-23T15:15:24.378Z,13.55
2022-10-23T15:17:53.818Z,13.52
2022-10-23T15:20:23.646Z,13.50
2022-10-23T15:22:52.036Z,13.41
2022-10-23T15:25:20.714Z,13.48
2022-10-23T15:27:49.684Z,13.48
2022-10-23T15:30:18.822Z,13.48
2022-10-23T15:32:47.094Z,13.47
2022-10-23T15:35:15.791Z,13.46
2022-10-23T15:37:45.849Z,13.50
2022-10-23T15:40:14.466Z,13.56
2022-10-23T15:42:43.093Z,13.51
2022-10-23T15:45:14.678Z,13.48
2022-10-23T15:47:43.544Z,13.50
2022-10-23T15:50:11.914Z,13.51
2022-10-23T15:52:40.272Z,13.54
2022-10-23T15:55:12.065Z,13.56
2022-10-23T15:57:40.528Z,13.55
2022-10-23T16:00:11.327Z,13.51
2022-10-23T16:02:39.856Z,13.47
2022-10-23T16:05:08.311Z,13.45
2022-10-23T16:07:36.800Z,13.46
2022-10-23T16:10:06.627Z,13.45
2022-10-23T16:12:36.323Z,13.43
2022-10-23T16:15:04.769Z,13.40
2022-10-23T16:17:33.195Z,13.35
2022-10-23T16:20:01.742Z,13.41
2022-10-23T16:22:30.261Z,13.41
2022-10-23T16:24:58.852Z,13.48
2022-10-23T16:27:27.192Z,13.51
2022-10-23T16:29:57.280Z,13.54
2022-10-23T16:32:25.615Z,13.53
2022-10-23T16:34:53.819Z,13.52
2022-10-23T16:37:21.941Z,13.47
2022-10-23T16:39:50.498Z,13.50
2022-10-23T16:44:52.058Z,13.51
2022-10-23T16:47:22.051Z,13.40
2022-10-23T16:49:50.153Z,13.48
2022-10-23T16:52:19.282Z,13.42
2022-10-23T16:54:47.467Z,13.38
2022-10-23T16:57:15.701Z,13.37
2022-10-23T16:59:44.258Z,13.37
2022-10-23T17:02:13.271Z,13.36
2022-10-23T17:04:42.952Z,13.39
2022-10-23T17:07:13.325Z,13.39
2022-10-23T17:09:41.956Z,13.42
2022-10-23T17:12:10.236Z,13.39
2022-10-23T17:14:39.091Z,13.40
2022-10-23T17:17:09.841Z,13.35
2022-10-23T17:19:45.958Z,13.30
2022-10-23T17:22:16.852Z,13.28
2022-10-23T17:24:48.757Z,13.30
2022-10-23T17:27:19.871Z,13.28
2022-10-23T17:29:48.238Z,13.29
2022-10-23T17:32:16.505Z,13.30
2022-10-23T17:34:45.128Z,13.30
2022-10-23T17:37:14.427Z,13.32
2022-10-23T17:39:44.110Z,13.25
2022-10-23T17:42:12.322Z,13.26
2022-10-23T17:44:41.159Z,13.27
2022-10-23T17:47:09.987Z,13.21
2022-10-23T17:49:39.631Z,13.18
2022-10-23T17:52:12.559Z,13.21
2022-10-23T17:54:42.213Z,13.18
2022-10-23T17:57:11.813Z,13.12
2022-10-23T17:59:40.452Z,13.12
2022-10-23T18:02:09.024Z,13.09
2022-10-23T18:04:37.348Z,13.06
2022-10-23T18:07:05.662Z,13.02
2022-10-23T18:09:34.148Z,13.04
2022-10-23T18:12:02.433Z,13.02
2022-10-23T18:14:34.304Z,13.00
2022-10-23T18:17:05.250Z,13.02
2022-10-23T18:19:33.561Z,12.97
2022-10-23T18:22:01.727Z,12.95
2022-10-23T18:24:31.111Z,12.95
2022-10-23T18:26:59.841Z,12.88
2022-10-23T18:29:28.554Z,12.94
2022-10-23T18:32:00.368Z,12.93
2022-10-23T18:34:32.681Z,12.92
2022-10-23T18:37:01.376Z,12.95
2022-10-23T18:39:29.810Z,12.93
2022-10-23T18:41:59.474Z,12.94
2022-10-23T18:44:29.970Z,12.88
2022-10-23T18:47:01.042Z,12.87
2022-10-23T18:49:29.408Z,12.92
2022-10-23T18:51:58.619Z,12.97
2022-10-23T18:54:26.980Z,13.07
2022-10-23T18:56:55.206Z,13.08
2022-10-23T18:59:25.016Z,13.11
2022-10-23T19:01:53.336Z,13.11
2022-10-23T19:04:23.504Z,13.09
2022-10-23T19:06:52.170Z,13.08
2022-10-23T19:09:20.394Z,13.09
2022-10-23T19:11:48.833Z,13.13
2022-10-23T19:14:17.141Z,13.15
2022-10-23T19:16:58.653Z,13.06
2022-10-23T19:19:31.242Z,13.09
2022-10-23T19:22:00.468Z,13.05
2022-10-23T19:24:34.535Z,12.99
2022-10-23T19:27:03.306Z,12.96
2022-10-23T19:29:32.241Z,12.95
2022-10-23T19:32:02.144Z,12.93
2022-10-23T19:34:31.932Z,12.89
2022-10-23T19:37:00.402Z,12.99
2022-10-23T19:39:28.996Z,13.02
2022-10-23T19:41:57.824Z,12.97
2022-10-23T19:44:26.494Z,12.91
2022-10-23T19:46:55.326Z,12.89
2022-10-23T19:49:24.034Z,12.90
2022-10-23T19:51:54.055Z,12.83
2022-10-23T19:54:22.902Z,12.84
2022-10-23T19:56:51.345Z,12.79
2022-10-23T19:59:19.543Z,12.85
2022-10-23T20:01:49.092Z,12.82
2022-10-23T20:04:18.766Z,12.83
2022-10-23T20:06:47.513Z,12.84
2022-10-23T20:09:17.164Z,12.77
2022-10-23T20:11:45.549Z,12.79
2022-10-23T20:14:14.356Z,12.77
2022-10-23T20:16:45.473Z,12.74
2022-10-23T20:21:50.295Z,12.58
2022-10-23T20:24:21.364Z,12.61
2022-10-23T20:26:51.707Z,12.61
2022-10-23T20:29:20.504Z,12.55
2022-10-23T20:31:48.921Z,12.63
2022-10-23T20:34:17.497Z,12.59
2022-10-23T20:36:48.645Z,12.56
2022-10-23T20:39:20.395Z,12.56
2022-10-23T20:41:49.334Z,12.55
2022-10-23T20:44:19.005Z,12.54
2022-10-23T20:46:47.813Z,12.61
2022-10-23T20:49:16.807Z,12.55
2022-10-23T20:51:44.936Z,12.61
2022-10-23T20:54:13.658Z,12.62
2022-10-23T20:56:43.477Z,12.57
2022-10-23T20:59:14.455Z,12.56
2022-10-23T21:01:44.869Z,12.52
2022-10-23T21:04:14.658Z,12.55
2022-10-23T21:06:57.712Z,12.63
2022-10-23T21:09:31.898Z,12.55
2022-10-23T21:12:01.984Z,12.61
2022-10-23T21:14:30.640Z,12.61
2022-10-23T21:16:58.892Z,12.63
2022-10-23T21:19:27.438Z,12.57
2022-10-23T21:21:56.077Z,12.46
2022-10-23T21:24:24.873Z,12.36
2022-10-23T21:26:53.332Z,12.45
2022-10-23T21:29:22.979Z,12.46
2022-10-23T21:31:55.298Z,12.42
2022-10-23T21:34:23.674Z,12.38
2022-10-23T21:37:22.078Z,12.33
2022-10-23T21:39:40.544Z,12.24
2022-10-23T21:42:11.690Z,12.30
2022-10-23T21:44:41.672Z,12.30
2022-10-23T21:47:10.044Z,12.37
2022-10-23T21:49:38.517Z,12.29
2022-10-23T21:52:06.948Z,12.13
2022-10-23T21:54:35.063Z,12.17
2022-10-23T21:57:04.546Z,12.14
2022-10-23T21:59:35.912Z,12.15
2022-10-23T22:02:06.267Z,12.13
2022-10-23T22:04:34.817Z,12.21
2022-10-23T22:07:04.262Z,12.18
2022-10-23T22:09:33.292Z,12.22
2022-10-23T22:12:02.434Z,12.04
2022-10-23T22:14:30.790Z,11.96
2022-10-23T22:17:00.036Z,11.91
2022-10-23T22:19:29.880Z,11.94
2022-10-23T22:21:58.480Z,11.94
2022-10-23T22:24:27.142Z,11.99
2022-10-23T22:26:57.302Z,11.95
2022-10-23T22:29:28.361Z,11.88
2022-10-23T22:31:57.500Z,11.84
2022-10-23T22:34:48.303Z,11.95
2022-10-23T22:37:17.285Z,11.93
2022-10-23T22:39:45.710Z,12.00
2022-10-23T22:42:13.914Z,11.90
2022-10-23T22:44:42.211Z,12.00
2022-10-23T22:47:10.334Z,11.93
2022-10-23T22:49:38.743Z,11.92
2022-10-23T22:52:07.173Z,11.93
2022-10-23T22:54:36.809Z,11.93
2022-10-23T22:57:05.087Z,11.92
2022-10-23T22:59:33.500Z,11.94
2022-10-23T23:02:02.023Z,11.83
2022-10-23T23:04:37.892Z,11.74
2022-10-23T23:07:07.177Z,11.76
2022-10-23T23:09:39.380Z,11.75
2022-10-23T23:12:08.622Z,11.75
2022-10-23T23:14:37.134Z,11.71
2022-10-23T23:17:06.237Z,11.69
2022-10-23T23:19:34.618Z,11.75
2022-10-23T23:22:04.594Z,11.74
2022-10-23T23:24:33.258Z,11.79
2022-10-23T23:27:02.983Z,11.93
2022-10-23T23:29:31.147Z,11.95
2022-10-23T23:31:59.700Z,12.05
2022-10-23T23:34:28.369Z,11.97
2022-10-23T23:36:56.419Z,11.96
2022-10-23T23:39:26.178Z,11.88
2022-10-23T23:41:54.598Z,11.88
2022-10-23T23:44:24.591Z,11.77
2022-10-23T23:46:53.315Z,11.77
2022-10-23T23:49:21.695Z,11.76
2022-10-23T23:51:50.382Z,11.82
2022-10-23T23:54:18.873Z,11.88
2022-10-23T23:56:47.384Z,11.89
2022-10-23T23:59:15.430Z,11.93
